Seattle, WA

2:28 AM PDT on 四月 24, 2017 (GMT -0700)
Seattle | | Change Station

高度 0 ft 47.61 °N, 122.34 °W | Updated 2 minutes ago

曇
48.0 °F
体感気温 44 °F
8.1
風 変数 風 から
Gusts 14.9 Mph

今日
高い -- | 低 -- °F
--% 降水確率
昨日
高い -- | 低 -- °F
Precip. -- インチ
気圧 29.79 インチ
視程 10.0 マイル
曇 4600 ft
体感気温(寒さ) 44 °F
露点温度 45 °F
湿度 88%
降水 0.00 インチ
積雪深 利用不可。
6:03 AM 8:12 PM
二十六夜, 6% visible
METAR KBFI 240853Z 16006KT 10SM -RA OVC046 08/08 A2979 RMK AO2 RAB46 SLP086 P0000 60000 T00830078 58011
気圧 29.79 インチ
視程 10.0 マイル
曇 4600 ft
体感気温(寒さ) 44 °F
露点温度 45 °F
湿度 88%
降水 0.00 インチ
積雪深 利用不可。
6:03 AM 8:12 PM
二十六夜, 6% visible
METAR KBFI 240853Z 16006KT 10SM -RA OVC046 08/08 A2979 RMK AO2 RAB46 SLP086 P0000 60000 T00830078 58011

Get Severe Weather Alerts

Thanks for signing up!

Be on the lookout for a verification email in your inbox.

You'll start receiving the daily forecast at 8 AM.

×

10-Day Weather Forecast

Almanac

天文

Apr. 24, 2017 入り
実時間
常用薄明
航海薄明
天文薄明
可視光の長さ
可照時間
Tomorrow will be .
, % of the Moon is Illuminated

今日の極値

State Highs State Lows

Community

WunderBlog® & News

Nearby

空気品質

  空気品質 大気質指数 汚染物質
Not available.

積雪深

Station Depth 高度

地震活動

Distance Mag. Time & Date
Minimum magnitude displayed is 2.5.

沿岸の水温

地名 気温

Stations

最寄りの気象観測所

観測所位置 温度 体感気温(寒さ) 露点温度 湿度 Precip. 高度 更新日時 タイプする
                   

Watches & Warnings

There are currently no watches in effect.